Nearby METAR Reports

 

KSJC - San Jose, California, USA
Distance from station: NE 14km
Updated: 2018-12-12 05:15
Mist, Overcast
Mist, Overcast
 Wind from calm
Wind: Calm
Temperature: 10°C
Dew Point: 9°C
Humidity: 94%
Barometer: 1023.4 hPa
Summary: Mist
Clouds: Overcast
Visibility: 4 km
Cloud details: Mostly cloudy 122 m
Overcast 335 m
2018/12/12 13:15 KSJC 121315Z AUTO 00000KT 2 1/2SM BR BKN004 OVC011 10/09 A3022 RMK AO2 T01000094
KNUQ - Moffett Nas/Mtn, California, USA
Distance from station: N 14km
Updated: 2018-12-12 04:56
Overcast
Overcast
 Wind from E
Wind: E 6 km/h
Temperature: 11°C
Dew Point: 9°C
Humidity: 88%
Barometer: 1023.4 hPa
Clouds: Overcast
Visibility: 16 km
Cloud details: Overcast 244 m
2018/12/12 12:56 KNUQ 121256Z 10003KT 10SM OVC008 11/09 A3022 RMK AO2 CIG 005V010 SLP236 T01110089
 
KPAO - Palo Alto, California, USA
Distance from station: NNW 23km
Updated: 2018-12-11 20:47
NOT Current
Few Clouds
Few Clouds
 Wind from calm
Wind: Calm
Temperature: 9°C
Barometer: 1023.4 hPa
Clouds: Few Clouds
Visibility: 16 km
Cloud details: Partly cloudy 305 m
Few Clouds 6096 m
2018/12/12 04:47 KPAO 120447Z 00000KT 10SM SCT010 FEW200 09/ A3022 RMK LAST
KRHV - San Jose/Reid, California, USA
Distance from station: ENE 19km
Updated: 2018-12-11 21:47
NOT Current
Few Clouds
Few Clouds
 Wind from calm
Wind: Calm
Temperature: 9°C
Dew Point: 6°C
Humidity: 82%
Barometer: 1022.7 hPa
Clouds: Few Clouds
Visibility: 16 km
Cloud details: Few Clouds 610 m
2018/12/12 05:47 KRHV 120547Z 00000KT 10SM FEW020 09/06 A3020
 
KOAK - Oakland, California, USA
Distance from station: NNW 50km
Updated: 2018-12-12 04:53
Mist, Overcast
Mist, Overcast
 Wind from SE
Wind: SE 9 km/h
Temperature: 11°C
Dew Point: 10°C
Humidity: 94%
Barometer: 1023.4 hPa
Summary: Mist
Clouds: Overcast
Visibility: 2 km
Cloud details: Overcast 91 m
2018/12/12 12:53 KOAK 121253Z 13005KT 1SM BR OVC003 11/10 A3022 RMK AO2 SFC VIS 2 1/2 DZE52 SLP233 P0000 T01060100 $
KSQL - San Carlos Airpo, California, USA
Distance from station: NW 34km
Updated: 2018-12-12 05:15
Overcast
Overcast
 Wind from ENE
Wind: ENE 9 km/h
Temperature: 12°C
Dew Point: 10°C
Humidity: 88%
Barometer: 1023.4 hPa
Clouds: Overcast
Visibility: 16 km
Cloud details: Overcast 335 m
2018/12/12 13:15 KSQL 121315Z AUTO 06005KT 10SM OVC011 12/10 A3022 RMK AO2
 
KSFO - San Francisco, California, USA
Distance from station: NW 49km
Updated: 2018-12-12 04:56
Mostly cloudy
Mostly cloudy
 Wind from varies
Wind: varies 6 km/h
Temperature: 13°C
Dew Point: 11°C
Humidity: 88%
Barometer: 1022.7 hPa
Clouds: Mostly cloudy
Visibility: 16 km
Cloud details: Few Clouds 183 m
Mostly cloudy 244 m
2018/12/12 12:56 KSFO 121256Z VRB03KT 10SM FEW006 BKN008 13/11 A3020 RMK AO2 SLP228 T01330111
KE16 - San Martin, California, USA
Distance from station: ESE 43km
Updated: 2018-12-12 04:50
Overcast
Overcast
 Wind from calm
Wind: Calm
Temperature: 7°C
Dew Point: 5°C
Humidity: 87%
Barometer: 1024 hPa
Clouds: Overcast
Visibility: 16 km
Cloud details: Overcast 305 m
2018/12/12 12:50 KE16 121250Z AUTO 00000KT 10SM OVC010 07/05 A3024 RMK AO2
 
KWVI - Watsonville, California, USA
Distance from station: SSE 44km
Updated: 2018-12-12 04:53
Clear
Clear
 Wind from NW
Wind: NW 6 km/h
Temperature: 6°C
Dew Point: 4°C
Humidity: 87%
Barometer: 1023.4 hPa
Clouds: Clear
Visibility: 16 km
2018/12/12 12:53 KWVI 121253Z AUTO 31003KT 10SM CLR 06/04 A3022 RMK AO2 SLP234 T00610039
KHAF - Half Moon Bay, California, USA
Distance from station: WNW 50km
Updated: 2018-12-12 05:15
Overcast
Overcast
 Wind from N
Wind: N 11 km/h
Temperature: 13°C
Dew Point: 12°C
Humidity: 94%
Barometer: 1023.4 hPa
Clouds: Overcast
Visibility: 11 km
Cloud details: Mostly cloudy 274 m
Overcast 427 m
2018/12/12 13:15 KHAF 121315Z AUTO 35006KT 7SM BKN009 OVC014 13/12 A3022 RMK AO2
 
KHWD - Hayward, California, USA
Distance from station: N 44km
Updated: 2018-12-12 04:54
Overcast
Overcast
 Wind from ESE
Wind: ESE 7 km/h
Temperature: 11°C
Dew Point: 9°C
Humidity: 88%
Barometer: 1023.4 hPa
Clouds: Overcast
Visibility: 13 km
Cloud details: Overcast 183 m
2018/12/12 12:54 KHWD 121254Z AUTO 12004KT 8SM OVC006 11/09 A3022 RMK AO2 SLP242 T01110089
KLVK - Livermore, California, USA
Distance from station: NNE 51km
Updated: 2018-12-12 04:53
Mostly cloudy
Mostly cloudy
 Wind from calm
Wind: Calm
Temperature: 8°C
Dew Point: 6°C
Humidity: 87%
Barometer: 1023 hPa
Clouds: Mostly cloudy
Visibility: 14 km
Cloud details: Mostly cloudy 671 m
2018/12/12 12:53 KLVK 121253Z AUTO 00000KT 9SM BKN022 08/06 A3021 RMK AO2 SLP231 T00780056